aviador You're here:

ZBYN Decoded Metar

TAIYUAN in CHINA
Report Time2017-04-29 17:30:00
UTC Time2017-04-29 17:46:50
Flight Rules vfr VFR
Wind080° at 4 kt
W.Decomp.*RWY 13: 2.8 kt HW 2.9 kt LCW
W.Rank080° ranks 1
Current wind is below 080° avg. (6.9)
Visibility9999 m
Phenomena:N/A
Clouds:N/A
Expected CloudBase > 6,400 ft AGL from Temp-Dew spread
CeilingNone
Temp13°C (ISA +3)
Dew Point-3°C (33% RH)
AAT9.2°C
QNH1009 hPa
Density Alt3,127 ft
Elevation2,556 ft
Report Wrong Elevation
Raw Report
ZBYN 291730Z 08002MPS 040V110 CAVOK 13/M03 Q1009 NOSIG=

Extra information for ZBYN:More info

Metar Taf Metar & Taf Last 4 Metars F.Rules Stats Wind Profile Meteogram Temp Stats Airport Information Weather charts Add Link Nearby VenuesMetar ALERT Operation Metar Decoded Social comments